sensor_id;sensor_type;location;lat;lon;timestamp;P1;durP1;ratioP1;P2;durP2;ratioP2
64682;SDS011;51107;47.652;19.016;2022-08-02T00:01:02;1.62;;;1.00;;
64682;SDS011;51107;47.652;19.016;2022-08-02T00:03:31;1.23;;;1.12;;
64682;SDS011;51107;47.652;19.016;2022-08-02T00:06:00;1.05;;;0.95;;
64682;SDS011;51107;47.652;19.016;2022-08-02T00:08:28;1.00;;;0.88;;
64682;SDS011;51107;47.652;19.016;2022-08-02T00:10:57;1.65;;;1.02;;
64682;SDS011;51107;47.652;19.016;2022-08-02T00:13:25;0.88;;;0.82;;
64682;SDS011;51107;47.652;19.016;2022-08-02T00:15:53;1.27;;;1.10;;
64682;SDS011;51107;47.652;19.016;2022-08-02T00:18:22;1.73;;;1.10;;
64682;SDS011;51107;47.652;19.016;2022-08-02T00:20:50;1.87;;;1.27;;
64682;SDS011;51107;47.652;19.016;2022-08-02T00:23:18;0.95;;;0.80;;
64682;SDS011;51107;47.652;19.016;2022-08-02T00:25:47;1.50;;;1.12;;
64682;SDS011;51107;47.652;19.016;2022-08-02T00:28:23;1.67;;;1.30;;
64682;SDS011;51107;47.652;19.016;2022-08-02T00:30:58;1.12;;;0.98;;
64682;SDS011;51107;47.652;19.016;2022-08-02T00:33:26;1.37;;;0.90;;
64682;SDS011;51107;47.652;19.016;2022-08-02T00:36:15;1.27;;;1.00;;
64682;SDS011;51107;47.652;19.016;2022-08-02T00:38:44;0.95;;;0.80;;
64682;SDS011;51107;47.652;19.016;2022-08-02T00:41:14;1.73;;;1.17;;
64682;SDS011;51107;47.652;19.016;2022-08-02T00:43:47;4.80;;;1.10;;
64682;SDS011;51107;47.652;19.016;2022-08-02T00:46:17;1.73;;;1.10;;
64682;SDS011;51107;47.652;19.016;2022-08-02T00:48:47;1.40;;;1.20;;
64682;SDS011;51107;47.652;19.016;2022-08-02T00:51:16;1.58;;;1.20;;
64682;SDS011;51107;47.652;19.016;2022-08-02T00:53:44;1.67;;;1.10;;
64682;SDS011;51107;47.652;19.016;2022-08-02T00:56:13;1.98;;;1.35;;
64682;SDS011;51107;47.652;19.016;2022-08-02T00:58:41;1.00;;;0.80;;
64682;SDS011;51107;47.652;19.016;2022-08-02T01:01:09;3.17;;;1.35;;
64682;SDS011;51107;47.652;19.016;2022-08-02T01:03:38;1.25;;;1.15;;
64682;SDS011;51107;47.652;19.016;2022-08-02T01:06:06;1.65;;;1.40;;
64682;SDS011;51107;47.652;19.016;2022-08-02T01:08:38;1.20;;;1.08;;
64682;SDS011;51107;47.652;19.016;2022-08-02T01:11:07;2.08;;;1.23;;
64682;SDS011;51107;47.652;19.016;2022-08-02T01:13:35;1.42;;;1.30;;
64682;SDS011;51107;47.652;19.016;2022-08-02T01:16:07;1.75;;;1.23;;
64682;SDS011;51107;47.652;19.016;2022-08-02T01:18:44;1.15;;;1.00;;
64682;SDS011;51107;47.652;19.016;2022-08-02T01:27:31;2.00;;;1.23;;
64682;SDS011;51107;47.652;19.016;2022-08-02T01:29:55;1.45;;;1.35;;
64682;SDS011;51107;47.652;19.016;2022-08-02T01:32:34;1.42;;;1.12;;
64682;SDS011;51107;47.652;19.016;2022-08-02T01:35:09;1.50;;;1.08;;
64682;SDS011;51107;47.652;19.016;2022-08-02T01:37:52;1.58;;;1.23;;
64682;SDS011;51107;47.652;19.016;2022-08-02T01:40:25;1.25;;;1.08;;
64682;SDS011;51107;47.652;19.016;2022-08-02T01:42:57;2.08;;;1.30;;
64682;SDS011;51107;47.652;19.016;2022-08-02T01:45:29;1.35;;;0.93;;
64682;SDS011;51107;47.652;19.016;2022-08-02T01:48:00;1.55;;;1.02;;
64682;SDS011;51107;47.652;19.016;2022-08-02T01:50:31;1.20;;;1.10;;
64682;SDS011;51107;47.652;19.016;2022-08-02T01:53:02;1.33;;;1.12;;
64682;SDS011;51107;47.652;19.016;2022-08-02T01:55:42;1.20;;;1.10;;
64682;SDS011;51107;47.652;19.016;2022-08-02T01:58:26;2.90;;;1.40;;
64682;SDS011;51107;47.652;19.016;2022-08-02T02:00:58;1.83;;;1.20;;
64682;SDS011;51107;47.652;19.016;2022-08-02T02:03:28;1.25;;;1.00;;
64682;SDS011;51107;47.652;19.016;2022-08-02T02:06:00;1.23;;;1.12;;
64682;SDS011;51107;47.652;19.016;2022-08-02T02:08:36;1.17;;;1.05;;
64682;SDS011;51107;47.652;19.016;2022-08-02T02:13:59;1.12;;;1.00;;
64682;SDS011;51107;47.652;19.016;2022-08-02T02:16:29;2.00;;;0.93;;
64682;SDS011;51107;47.652;19.016;2022-08-02T02:19:00;1.35;;;1.05;;
64682;SDS011;51107;47.652;19.016;2022-08-02T02:21:30;3.60;;;1.42;;
64682;SDS011;51107;47.652;19.016;2022-08-02T02:24:01;1.33;;;1.00;;
64682;SDS011;51107;47.652;19.016;2022-08-02T02:26:35;1.40;;;1.15;;
64682;SDS011;51107;47.652;19.016;2022-08-02T02:29:09;1.15;;;1.02;;
64682;SDS011;51107;47.652;19.016;2022-08-02T02:31:39;1.58;;;1.42;;
64682;SDS011;51107;47.652;19.016;2022-08-02T02:34:13;2.22;;;1.45;;
64682;SDS011;51107;47.652;19.016;2022-08-02T02:36:47;1.73;;;1.50;;
64682;SDS011;51107;47.652;19.016;2022-08-02T02:39:19;1.87;;;1.33;;
64682;SDS011;51107;47.652;19.016;2022-08-02T02:41:50;1.42;;;1.10;;
64682;SDS011;51107;47.652;19.016;2022-08-02T02:44:21;2.65;;;1.45;;
64682;SDS011;51107;47.652;19.016;2022-08-02T02:46:51;1.00;;;0.75;;
64682;SDS011;51107;47.652;19.016;2022-08-02T02:49:22;1.60;;;1.30;;
64682;SDS011;51107;47.652;19.016;2022-08-02T02:51:52;1.10;;;0.90;;
64682;SDS011;51107;47.652;19.016;2022-08-02T02:54:22;1.40;;;1.30;;
64682;SDS011;51107;47.652;19.016;2022-08-02T02:57:02;1.45;;;1.12;;
64682;SDS011;51107;47.652;19.016;2022-08-02T02:59:33;1.50;;;1.02;;
64682;SDS011;51107;47.652;19.016;2022-08-02T03:02:10;1.62;;;1.05;;
64682;SDS011;51107;47.652;19.016;2022-08-02T03:04:39;1.12;;;1.02;;
64682;SDS011;51107;47.652;19.016;2022-08-02T03:07:25;2.50;;;1.50;;
64682;SDS011;51107;47.652;19.016;2022-08-02T03:09:54;1.27;;;1.10;;
64682;SDS011;51107;47.652;19.016;2022-08-02T03:12:22;2.05;;;1.15;;
64682;SDS011;51107;47.652;19.016;2022-08-02T03:14:59;1.30;;;1.17;;
64682;SDS011;51107;47.652;19.016;2022-08-02T03:17:40;1.85;;;1.30;;
64682;SDS011;51107;47.652;19.016;2022-08-02T03:20:11;3.05;;;1.45;;
64682;SDS011;51107;47.652;19.016;2022-08-02T03:22:41;3.75;;;1.23;;
64682;SDS011;51107;47.652;19.016;2022-08-02T03:25:11;2.12;;;1.52;;
64682;SDS011;51107;47.652;19.016;2022-08-02T03:27:40;2.25;;;1.50;;
64682;SDS011;51107;47.652;19.016;2022-08-02T03:30:09;2.92;;;1.33;;
64682;SDS011;51107;47.652;19.016;2022-08-02T03:32:40;2.62;;;1.30;;
64682;SDS011;51107;47.652;19.016;2022-08-02T03:35:12;1.67;;;1.10;;
64682;SDS011;51107;47.652;19.016;2022-08-02T03:37:51;1.55;;;1.23;;
64682;SDS011;51107;47.652;19.016;2022-08-02T03:40:24;2.05;;;1.42;;
64682;SDS011;51107;47.652;19.016;2022-08-02T03:42:54;1.85;;;1.30;;
64682;SDS011;51107;47.652;19.016;2022-08-02T03:45:22;1.52;;;1.20;;
64682;SDS011;51107;47.652;19.016;2022-08-02T03:47:52;2.65;;;1.35;;
64682;SDS011;51107;47.652;19.016;2022-08-02T03:50:26;1.63;;;1.20;;
64682;SDS011;51107;47.652;19.016;2022-08-02T03:52:54;2.45;;;1.20;;
64682;SDS011;51107;47.652;19.016;2022-08-02T03:55:23;1.98;;;1.05;;
64682;SDS011;51107;47.652;19.016;2022-08-02T03:57:52;1.50;;;1.12;;
64682;SDS011;51107;47.652;19.016;2022-08-02T04:00:21;1.95;;;1.20;;
64682;SDS011;51107;47.652;19.016;2022-08-02T04:02:50;2.15;;;1.50;;
64682;SDS011;51107;47.652;19.016;2022-08-02T04:05:19;1.45;;;1.20;;
64682;SDS011;51107;47.652;19.016;2022-08-02T04:07:47;3.50;;;1.33;;
64682;SDS011;51107;47.652;19.016;2022-08-02T04:10:36;1.23;;;1.10;;
64682;SDS011;51107;47.652;19.016;2022-08-02T04:13:24;1.62;;;1.27;;
64682;SDS011;51107;47.652;19.016;2022-08-02T04:16:12;1.92;;;1.42;;
64682;SDS011;51107;47.652;19.016;2022-08-02T04:18:59;1.30;;;1.20;;
64682;SDS011;51107;47.652;19.016;2022-08-02T04:21:30;1.20;;;1.10;;
64682;SDS011;51107;47.652;19.016;2022-08-02T04:24:19;2.10;;;1.40;;
64682;SDS011;51107;47.652;19.016;2022-08-02T04:26:55;1.92;;;1.10;;
64682;SDS011;51107;47.652;19.016;2022-08-02T04:29:45;1.73;;;1.17;;
64682;SDS011;51107;47.652;19.016;2022-08-02T04:32:16;1.33;;;1.05;;
64682;SDS011;51107;47.652;19.016;2022-08-02T04:34:44;1.85;;;1.23;;
64682;SDS011;51107;47.652;19.016;2022-08-02T04:37:34;1.60;;;1.37;;
64682;SDS011;51107;47.652;19.016;2022-08-02T04:40:08;1.55;;;1.35;;
64682;SDS011;51107;47.652;19.016;2022-08-02T04:42:38;1.40;;;1.30;;
64682;SDS011;51107;47.652;19.016;2022-08-02T04:45:07;1.30;;;1.08;;
64682;SDS011;51107;47.652;19.016;2022-08-02T04:47:36;1.55;;;1.20;;
64682;SDS011;51107;47.652;19.016;2022-08-02T04:50:24;1.30;;;1.20;;
64682;SDS011;51107;47.652;19.016;2022-08-02T04:52:52;2.67;;;1.62;;
64682;SDS011;51107;47.652;19.016;2022-08-02T04:55:20;3.53;;;1.62;;
64682;SDS011;51107;47.652;19.016;2022-08-02T04:57:52;1.45;;;1.23;;
64682;SDS011;51107;47.652;19.016;2022-08-02T05:00:25;2.05;;;1.40;;
64682;SDS011;51107;47.652;19.016;2022-08-02T05:02:55;1.77;;;1.27;;
64682;SDS011;51107;47.652;19.016;2022-08-02T05:05:24;1.30;;;1.20;;
64682;SDS011;51107;47.652;19.016;2022-08-02T05:07:53;1.60;;;1.20;;
64682;SDS011;51107;47.652;19.016;2022-08-02T05:10:21;1.35;;;1.20;;
64682;SDS011;51107;47.652;19.016;2022-08-02T05:12:50;1.20;;;1.10;;
64682;SDS011;51107;47.652;19.016;2022-08-02T05:15:18;1.37;;;1.25;;
64682;SDS011;51107;47.652;19.016;2022-08-02T05:17:47;1.33;;;1.10;;
64682;SDS011;51107;47.652;19.016;2022-08-02T05:20:16;1.58;;;1.27;;
64682;SDS011;51107;47.652;19.016;2022-08-02T05:22:45;1.00;;;0.90;;
64682;SDS011;51107;47.652;19.016;2022-08-02T05:25:14;1.00;;;0.90;;
64682;SDS011;51107;47.652;19.016;2022-08-02T05:27:42;1.73;;;1.30;;
64682;SDS011;51107;47.652;19.016;2022-08-02T05:30:11;2.45;;;1.30;;
64682;SDS011;51107;47.652;19.016;2022-08-02T05:32:44;2.20;;;1.40;;
64682;SDS011;51107;47.652;19.016;2022-08-02T05:35:16;2.15;;;1.60;;
64682;SDS011;51107;47.652;19.016;2022-08-02T05:37:46;1.55;;;1.30;;
64682;SDS011;51107;47.652;19.016;2022-08-02T05:40:16;1.45;;;1.23;;
64682;SDS011;51107;47.652;19.016;2022-08-02T05:42:55;1.50;;;1.30;;
64682;SDS011;51107;47.652;19.016;2022-08-02T05:45:23;1.30;;;1.17;;
64682;SDS011;51107;47.652;19.016;2022-08-02T05:47:52;1.95;;;1.20;;
64682;SDS011;51107;47.652;19.016;2022-08-02T05:50:21;1.45;;;1.33;;
64682;SDS011;51107;47.652;19.016;2022-08-02T05:52:55;2.85;;;1.48;;
64682;SDS011;51107;47.652;19.016;2022-08-02T05:55:34;1.20;;;1.10;;
64682;SDS011;51107;47.652;19.016;2022-08-02T06:00:44;1.50;;;1.23;;
64682;SDS011;51107;47.652;19.016;2022-08-02T06:03:30;1.58;;;1.27;;
64682;SDS011;51107;47.652;19.016;2022-08-02T06:06:09;1.10;;;1.00;;
64682;SDS011;51107;47.652;19.016;2022-08-02T06:08:43;1.98;;;1.27;;
64682;SDS011;51107;47.652;19.016;2022-08-02T06:11:15;2.15;;;1.35;;
64682;SDS011;51107;47.652;19.016;2022-08-02T06:13:47;1.35;;;1.12;;
64682;SDS011;51107;47.652;19.016;2022-08-02T06:16:15;1.27;;;1.15;;
64682;SDS011;51107;47.652;19.016;2022-08-02T06:19:02;2.20;;;1.37;;
64682;SDS011;51107;47.652;19.016;2022-08-02T06:21:31;2.75;;;1.50;;
64682;SDS011;51107;47.652;19.016;2022-08-02T06:24:21;1.45;;;1.30;;
64682;SDS011;51107;47.652;19.016;2022-08-02T06:26:51;6.30;;;1.40;;
64682;SDS011;51107;47.652;19.016;2022-08-02T06:29:22;1.20;;;1.10;;
64682;SDS011;51107;47.652;19.016;2022-08-02T06:31:54;1.05;;;0.95;;
64682;SDS011;51107;47.652;19.016;2022-08-02T06:34:23;1.85;;;1.20;;
64682;SDS011;51107;47.652;19.016;2022-08-02T06:36:57;3.80;;;1.40;;
64682;SDS011;51107;47.652;19.016;2022-08-02T06:39:42;2.00;;;1.10;;
64682;SDS011;51107;47.652;19.016;2022-08-02T06:42:14;1.25;;;1.10;;
64682;SDS011;51107;47.652;19.016;2022-08-02T06:44:54;1.15;;;0.90;;
64682;SDS011;51107;47.652;19.016;2022-08-02T06:47:25;1.10;;;1.00;;
64682;SDS011;51107;47.652;19.016;2022-08-02T06:49:56;1.30;;;1.00;;
64682;SDS011;51107;47.652;19.016;2022-08-02T06:52:26;2.83;;;1.20;;
64682;SDS011;51107;47.652;19.016;2022-08-02T06:54:58;3.15;;;1.20;;
64682;SDS011;51107;47.652;19.016;2022-08-02T06:57:28;1.10;;;1.00;;
64682;SDS011;51107;47.652;19.016;2022-08-02T06:59:58;1.35;;;1.17;;
64682;SDS011;51107;47.652;19.016;2022-08-02T07:02:33;1.00;;;0.90;;
64682;SDS011;51107;47.652;19.016;2022-08-02T07:05:05;1.20;;;1.08;;
64682;SDS011;51107;47.652;19.016;2022-08-02T07:07:34;1.50;;;1.40;;
64682;SDS011;51107;47.652;19.016;2022-08-02T07:10:06;1.87;;;1.40;;
64682;SDS011;51107;47.652;19.016;2022-08-02T07:12:35;2.60;;;1.58;;
64682;SDS011;51107;47.652;19.016;2022-08-02T07:15:04;2.03;;;1.00;;
64682;SDS011;51107;47.652;19.016;2022-08-02T07:17:34;1.62;;;1.10;;
64682;SDS011;51107;47.652;19.016;2022-08-02T07:20:03;1.33;;;1.23;;
64682;SDS011;51107;47.652;19.016;2022-08-02T07:22:32;1.30;;;1.20;;
64682;SDS011;51107;47.652;19.016;2022-08-02T07:25:00;2.45;;;1.12;;
64682;SDS011;51107;47.652;19.016;2022-08-02T07:27:30;1.70;;;1.20;;
64682;SDS011;51107;47.652;19.016;2022-08-02T07:29:59;2.67;;;1.35;;
64682;SDS011;51107;47.652;19.016;2022-08-02T07:32:29;1.17;;;1.02;;
64682;SDS011;51107;47.652;19.016;2022-08-02T07:34:59;2.70;;;1.52;;
64682;SDS011;51107;47.652;19.016;2022-08-02T07:37:34;1.45;;;1.20;;
64682;SDS011;51107;47.652;19.016;2022-08-02T07:40:24;1.35;;;1.17;;
64682;SDS011;51107;47.652;19.016;2022-08-02T07:42:54;1.70;;;1.10;;
64682;SDS011;51107;47.652;19.016;2022-08-02T07:45:31;1.40;;;1.30;;
64682;SDS011;51107;47.652;19.016;2022-08-02T07:48:02;1.92;;;1.20;;
64682;SDS011;51107;47.652;19.016;2022-08-02T07:50:31;3.33;;;1.40;;
64682;SDS011;51107;47.652;19.016;2022-08-02T07:53:00;1.20;;;1.10;;
64682;SDS011;51107;47.652;19.016;2022-08-02T07:55:29;1.20;;;1.10;;
64682;SDS011;51107;47.652;19.016;2022-08-02T07:58:08;2.08;;;1.40;;
64682;SDS011;51107;47.652;19.016;2022-08-02T08:00:43;1.30;;;1.20;;
64682;SDS011;51107;47.652;19.016;2022-08-02T08:03:12;1.65;;;0.70;;
64682;SDS011;51107;47.652;19.016;2022-08-02T08:05:40;1.20;;;1.05;;
64682;SDS011;51107;47.652;19.016;2022-08-02T08:08:08;1.45;;;1.02;;
64682;SDS011;51107;47.652;19.016;2022-08-02T08:10:44;1.02;;;0.93;;
64682;SDS011;51107;47.652;19.016;2022-08-02T08:13:13;1.52;;;1.10;;
64682;SDS011;51107;47.652;19.016;2022-08-02T08:15:42;1.00;;;0.90;;
64682;SDS011;51107;47.652;19.016;2022-08-02T08:18:21;4.20;;;1.10;;
64682;SDS011;51107;47.652;19.016;2022-08-02T08:20:49;1.17;;;1.08;;
64682;SDS011;51107;47.652;19.016;2022-08-02T08:23:18;4.10;;;1.12;;
64682;SDS011;51107;47.652;19.016;2022-08-02T08:25:47;2.17;;;1.20;;
64682;SDS011;51107;47.652;19.016;2022-08-02T08:28:15;4.05;;;1.45;;
64682;SDS011;51107;47.652;19.016;2022-08-02T08:30:43;1.40;;;1.12;;
64682;SDS011;51107;47.652;19.016;2022-08-02T08:33:12;1.83;;;1.12;;
64682;SDS011;51107;47.652;19.016;2022-08-02T08:35:40;1.67;;;1.02;;
64682;SDS011;51107;47.652;19.016;2022-08-02T08:38:09;1.20;;;1.10;;
64682;SDS011;51107;47.652;19.016;2022-08-02T08:40:37;1.27;;;1.17;;
64682;SDS011;51107;47.652;19.016;2022-08-02T08:43:11;1.23;;;1.12;;
64682;SDS011;51107;47.652;19.016;2022-08-02T08:45:44;2.17;;;1.30;;
64682;SDS011;51107;47.652;19.016;2022-08-02T08:48:23;1.10;;;1.00;;
64682;SDS011;51107;47.652;19.016;2022-08-02T08:51:06;1.48;;;1.30;;
64682;SDS011;51107;47.652;19.016;2022-08-02T08:53:38;0.88;;;0.88;;
64682;SDS011;51107;47.652;19.016;2022-08-02T08:56:14;1.27;;;1.10;;
64682;SDS011;51107;47.652;19.016;2022-08-02T08:58:44;2.05;;;1.15;;
64682;SDS011;51107;47.652;19.016;2022-08-02T09:01:14;1.42;;;1.20;;
64682;SDS011;51107;47.652;19.016;2022-08-02T09:03:44;1.10;;;1.10;;
64682;SDS011;51107;47.652;19.016;2022-08-02T09:06:13;1.20;;;1.10;;
64682;SDS011;51107;47.652;19.016;2022-08-02T09:08:41;1.98;;;1.30;;
64682;SDS011;51107;47.652;19.016;2022-08-02T09:11:14;2.92;;;1.40;;
64682;SDS011;51107;47.652;19.016;2022-08-02T09:14:17;2.95;;;1.40;;
64682;SDS011;51107;47.652;19.016;2022-08-02T09:16:52;1.30;;;1.20;;
64682;SDS011;51107;47.652;19.016;2022-08-02T09:19:22;1.05;;;0.95;;
64682;SDS011;51107;47.652;19.016;2022-08-02T09:21:59;2.25;;;1.40;;
64682;SDS011;51107;47.652;19.016;2022-08-02T09:24:39;1.17;;;1.08;;
64682;SDS011;51107;47.652;19.016;2022-08-02T09:27:19;1.30;;;1.20;;
64682;SDS011;51107;47.652;19.016;2022-08-02T09:29:50;1.98;;;1.12;;
64682;SDS011;51107;47.652;19.016;2022-08-02T09:32:43;1.65;;;1.33;;
64682;SDS011;51107;47.652;19.016;2022-08-02T09:35:13;1.87;;;1.27;;
64682;SDS011;51107;47.652;19.016;2022-08-02T09:38:18;1.35;;;1.23;;
64682;SDS011;51107;47.652;19.016;2022-08-02T09:40:47;1.20;;;1.10;;
64682;SDS011;51107;47.652;19.016;2022-08-02T09:43:15;1.20;;;1.10;;
64682;SDS011;51107;47.652;19.016;2022-08-02T09:45:44;1.20;;;1.10;;
64682;SDS011;51107;47.652;19.016;2022-08-02T09:48:12;1.42;;;1.23;;
64682;SDS011;51107;47.652;19.016;2022-08-02T09:50:40;1.52;;;1.33;;
64682;SDS011;51107;47.652;19.016;2022-08-02T09:53:13;1.30;;;1.20;;
64682;SDS011;51107;47.652;19.016;2022-08-02T09:55:43;1.48;;;1.37;;
64682;SDS011;51107;47.652;19.016;2022-08-02T09:58:23;1.30;;;1.20;;
64682;SDS011;51107;47.652;19.016;2022-08-02T10:00:54;1.30;;;1.20;;
64682;SDS011;51107;47.652;19.016;2022-08-02T10:03:26;1.30;;;1.20;;
64682;SDS011;51107;47.652;19.016;2022-08-02T10:06:02;1.30;;;1.20;;
64682;SDS011;51107;47.652;19.016;2022-08-02T10:08:31;1.30;;;1.20;;
64682;SDS011;51107;47.652;19.016;2022-08-02T10:11:00;1.30;;;1.20;;
64682;SDS011;51107;47.652;19.016;2022-08-02T10:13:32;2.45;;;1.35;;
64682;SDS011;51107;47.652;19.016;2022-08-02T10:16:02;3.92;;;1.23;;
64682;SDS011;51107;47.652;19.016;2022-08-02T10:18:31;1.42;;;1.33;;
64682;SDS011;51107;47.652;19.016;2022-08-02T10:21:21;3.92;;;1.30;;
64682;SDS011;51107;47.652;19.016;2022-08-02T10:23:50;1.10;;;1.00;;
64682;SDS011;51107;47.652;19.016;2022-08-02T10:26:20;1.87;;;1.48;;
64682;SDS011;51107;47.652;19.016;2022-08-02T10:28:49;1.50;;;1.40;;
64682;SDS011;51107;47.652;19.016;2022-08-02T10:31:23;1.42;;;1.23;;
64682;SDS011;51107;47.652;19.016;2022-08-02T10:33:54;1.00;;;1.00;;
64682;SDS011;51107;47.652;19.016;2022-08-02T10:36:28;1.15;;;1.05;;
64682;SDS011;51107;47.652;19.016;2022-08-02T10:39:00;0.95;;;0.95;;
64682;SDS011;51107;47.652;19.016;2022-08-02T10:41:39;1.08;;;0.98;;
64682;SDS011;51107;47.652;19.016;2022-08-02T10:44:22;1.55;;;1.08;;
64682;SDS011;51107;47.652;19.016;2022-08-02T10:49:57;1.00;;;0.90;;
64682;SDS011;51107;47.652;19.016;2022-08-02T10:52:30;0.90;;;0.90;;
64682;SDS011;51107;47.652;19.016;2022-08-02T10:55:00;1.08;;;1.00;;
64682;SDS011;51107;47.652;19.016;2022-08-02T10:58:00;1.02;;;0.93;;
64682;SDS011;51107;47.652;19.016;2022-08-02T11:00:44;1.10;;;1.00;;
64682;SDS011;51107;47.652;19.016;2022-08-02T11:06:03;2.72;;;1.42;;
64682;SDS011;51107;47.652;19.016;2022-08-02T11:14:34;0.98;;;0.90;;
64682;SDS011;51107;47.652;19.016;2022-08-02T11:19:34;0.95;;;0.90;;
64682;SDS011;51107;47.652;19.016;2022-08-02T11:22:24;2.25;;;0.90;;
64682;SDS011;51107;47.652;19.016;2022-08-02T11:24:53;0.93;;;0.90;;
64682;SDS011;51107;47.652;19.016;2022-08-02T11:27:21;1.10;;;0.90;;
64682;SDS011;51107;47.652;19.016;2022-08-02T11:29:49;0.95;;;0.90;;
64682;SDS011;51107;47.652;19.016;2022-08-02T11:32:22;2.12;;;1.15;;
64682;SDS011;51107;47.652;19.016;2022-08-02T11:34:57;1.12;;;0.90;;
64682;SDS011;51107;47.652;19.016;2022-08-02T11:37:28;0.93;;;0.77;;
64682;SDS011;51107;47.652;19.016;2022-08-02T11:40:02;1.00;;;0.90;;
64682;SDS011;51107;47.652;19.016;2022-08-02T11:42:38;1.00;;;0.90;;
64682;SDS011;51107;47.652;19.016;2022-08-02T11:45:09;1.10;;;1.00;;
64682;SDS011;51107;47.652;19.016;2022-08-02T11:47:49;1.00;;;0.90;;
64682;SDS011;51107;47.652;19.016;2022-08-02T11:50:21;0.95;;;0.82;;
64682;SDS011;51107;47.652;19.016;2022-08-02T11:52:57;0.75;;;0.73;;
64682;SDS011;51107;47.652;19.016;2022-08-02T11:55:29;1.50;;;0.80;;
64682;SDS011;51107;47.652;19.016;2022-08-02T11:57:59;0.98;;;0.88;;
64682;SDS011;51107;47.652;19.016;2022-08-02T12:00:32;1.00;;;0.90;;
64682;SDS011;51107;47.652;19.016;2022-08-02T12:03:01;0.73;;;0.73;;
64682;SDS011;51107;47.652;19.016;2022-08-02T12:05:29;0.70;;;0.70;;
64682;SDS011;51107;47.652;19.016;2022-08-02T12:08:19;0.77;;;0.77;;
64682;SDS011;51107;47.652;19.016;2022-08-02T12:10:53;1.02;;;0.88;;
64682;SDS011;51107;47.652;19.016;2022-08-02T12:13:21;0.90;;;0.62;;
64682;SDS011;51107;47.652;19.016;2022-08-02T12:15:49;1.10;;;1.00;;
64682;SDS011;51107;47.652;19.016;2022-08-02T12:18:20;1.00;;;0.90;;
64682;SDS011;51107;47.652;19.016;2022-08-02T12:21:24;1.50;;;1.10;;
64682;SDS011;51107;47.652;19.016;2022-08-02T12:23:53;1.42;;;1.05;;
64682;SDS011;51107;47.652;19.016;2022-08-02T12:26:28;1.10;;;1.00;;
64682;SDS011;51107;47.652;19.016;2022-08-02T12:28:57;0.90;;;0.90;;
64682;SDS011;51107;47.652;19.016;2022-08-02T12:31:43;1.42;;;0.90;;
64682;SDS011;51107;47.652;19.016;2022-08-02T12:34:26;0.80;;;0.80;;
64682;SDS011;51107;47.652;19.016;2022-08-02T12:44:33;0.77;;;0.77;;
64682;SDS011;51107;47.652;19.016;2022-08-02T12:47:07;0.70;;;0.70;;
64682;SDS011;51107;47.652;19.016;2022-08-02T12:49:39;0.80;;;0.80;;
64682;SDS011;51107;47.652;19.016;2022-08-02T12:52:17;0.88;;;0.80;;
64682;SDS011;51107;47.652;19.016;2022-08-02T12:54:50;1.05;;;0.85;;
64682;SDS011;51107;47.652;19.016;2022-08-02T12:57:18;0.80;;;0.80;;
64682;SDS011;51107;47.652;19.016;2022-08-02T12:59:51;0.70;;;0.70;;
64682;SDS011;51107;47.652;19.016;2022-08-02T13:02:20;0.73;;;0.70;;
64682;SDS011;51107;47.652;19.016;2022-08-02T13:04:49;1.45;;;1.00;;
64682;SDS011;51107;47.652;19.016;2022-08-02T13:07:17;0.82;;;0.80;;
64682;SDS011;51107;47.652;19.016;2022-08-02T13:09:46;3.40;;;0.90;;
64682;SDS011;51107;47.652;19.016;2022-08-02T13:12:17;0.90;;;0.75;;
64682;SDS011;51107;47.652;19.016;2022-08-02T13:14:45;3.37;;;0.90;;
64682;SDS011;51107;47.652;19.016;2022-08-02T13:17:14;0.82;;;0.80;;
64682;SDS011;51107;47.652;19.016;2022-08-02T13:19:43;0.95;;;0.73;;
64682;SDS011;51107;47.652;19.016;2022-08-02T13:22:17;1.00;;;0.90;;
64682;SDS011;51107;47.652;19.016;2022-08-02T13:24:46;0.80;;;0.80;;
64682;SDS011;51107;47.652;19.016;2022-08-02T13:27:24;1.05;;;0.80;;
64682;SDS011;51107;47.652;19.016;2022-08-02T13:29:56;0.70;;;0.70;;
64682;SDS011;51107;47.652;19.016;2022-08-02T13:32:25;0.60;;;0.60;;
64682;SDS011;51107;47.652;19.016;2022-08-02T13:34:56;0.60;;;0.60;;
64682;SDS011;51107;47.652;19.016;2022-08-02T13:37:25;0.55;;;0.55;;
64682;SDS011;51107;47.652;19.016;2022-08-02T13:39:55;0.50;;;0.50;;
64682;SDS011;51107;47.652;19.016;2022-08-02T13:42:44;1.00;;;0.68;;
64682;SDS011;51107;47.652;19.016;2022-08-02T13:45:12;0.82;;;0.60;;
64682;SDS011;51107;47.652;19.016;2022-08-02T13:47:42;0.40;;;0.40;;
64682;SDS011;51107;47.652;19.016;2022-08-02T13:50:31;0.75;;;0.50;;
64682;SDS011;51107;47.652;19.016;2022-08-02T13:52:59;0.80;;;0.60;;
64682;SDS011;51107;47.652;19.016;2022-08-02T13:55:27;0.50;;;0.50;;
64682;SDS011;51107;47.652;19.016;2022-08-02T13:57:57;0.60;;;0.60;;
64682;SDS011;51107;47.652;19.016;2022-08-02T14:00:25;0.50;;;0.50;;
64682;SDS011;51107;47.652;19.016;2022-08-02T14:03:04;0.50;;;0.50;;
64682;SDS011;51107;47.652;19.016;2022-08-02T14:05:37;0.65;;;0.50;;
64682;SDS011;51107;47.652;19.016;2022-08-02T14:08:16;0.43;;;0.43;;
64682;SDS011;51107;47.652;19.016;2022-08-02T14:10:46;0.50;;;0.50;;
64682;SDS011;51107;47.652;19.016;2022-08-02T14:13:15;0.60;;;0.60;;
64682;SDS011;51107;47.652;19.016;2022-08-02T14:15:44;0.50;;;0.50;;
64682;SDS011;51107;47.652;19.016;2022-08-02T14:18:13;0.50;;;0.50;;
64682;SDS011;51107;47.652;19.016;2022-08-02T14:20:43;0.50;;;0.50;;
64682;SDS011;51107;47.652;19.016;2022-08-02T14:23:12;0.50;;;0.50;;
64682;SDS011;51107;47.652;19.016;2022-08-02T14:25:40;0.60;;;0.60;;
64682;SDS011;51107;47.652;19.016;2022-08-02T14:28:09;0.65;;;0.60;;
64682;SDS011;51107;47.652;19.016;2022-08-02T14:30:37;0.60;;;0.60;;
64682;SDS011;51107;47.652;19.016;2022-08-02T14:33:05;0.65;;;0.47;;
64682;SDS011;51107;47.652;19.016;2022-08-02T14:35:34;0.55;;;0.55;;
64682;SDS011;51107;47.652;19.016;2022-08-02T14:38:02;0.43;;;0.43;;
64682;SDS011;51107;47.652;19.016;2022-08-02T14:40:31;0.40;;;0.40;;
64682;SDS011;51107;47.652;19.016;2022-08-02T14:43:00;0.50;;;0.50;;
64682;SDS011;51107;47.652;19.016;2022-08-02T14:45:29;0.50;;;0.50;;
64682;SDS011;51107;47.652;19.016;2022-08-02T14:48:09;0.93;;;0.50;;
64682;SDS011;51107;47.652;19.016;2022-08-02T14:50:44;0.55;;;0.50;;
64682;SDS011;51107;47.652;19.016;2022-08-02T14:53:13;0.80;;;0.70;;
64682;SDS011;51107;47.652;19.016;2022-08-02T14:55:41;1.17;;;0.70;;
64682;SDS011;51107;47.652;19.016;2022-08-02T14:58:10;0.50;;;0.50;;
64682;SDS011;51107;47.652;19.016;2022-08-02T15:00:39;0.60;;;0.60;;
64682;SDS011;51107;47.652;19.016;2022-08-02T15:03:10;0.40;;;0.40;;
64682;SDS011;51107;47.652;19.016;2022-08-02T15:05:39;0.98;;;0.60;;
64682;SDS011;51107;47.652;19.016;2022-08-02T15:08:07;0.50;;;0.43;;
64682;SDS011;51107;47.652;19.016;2022-08-02T15:10:36;0.80;;;0.68;;
64682;SDS011;51107;47.652;19.016;2022-08-02T15:13:04;0.60;;;0.60;;
64682;SDS011;51107;47.652;19.016;2022-08-02T15:15:34;0.55;;;0.55;;
64682;SDS011;51107;47.652;19.016;2022-08-02T15:18:11;0.50;;;0.50;;
64682;SDS011;51107;47.652;19.016;2022-08-02T15:20:40;0.60;;;0.60;;
64682;SDS011;51107;47.652;19.016;2022-08-02T15:23:24;0.40;;;0.40;;
64682;SDS011;51107;47.652;19.016;2022-08-02T15:26:04;0.57;;;0.57;;
64682;SDS011;51107;47.652;19.016;2022-08-02T15:28:33;0.57;;;0.57;;
64682;SDS011;51107;47.652;19.016;2022-08-02T15:31:02;0.50;;;0.50;;
64682;SDS011;51107;47.652;19.016;2022-08-02T15:33:30;0.40;;;0.40;;
64682;SDS011;51107;47.652;19.016;2022-08-02T15:35:58;0.70;;;0.70;;
64682;SDS011;51107;47.652;19.016;2022-08-02T15:38:27;0.50;;;0.50;;